Time;durP1;ratioP1;P1;durP2;ratioP2;P2;SDS_P1;SDS_P2;PMS_P1;PMS_P2;Temp;Humidity;BMP_temperature;BMP_pressure;BME280_temperature;BME280_humidity;BME280_pressure;Samples;Min_cycle;Max_cycle;Signal;HPM_P1;HPM_P2
2024/01/26 00:00:39;;;;;;;29.67;14.15;;;;;;;;;;5102532;28;20040;-86
2024/01/26 00:03:05;;;;;;;30.05;13.38;;;;;;;;;;5109266;28;20036;-87
2024/01/26 00:05:32;;;;;;;29.98;14.32;;;;;;;;;;5102878;28;20052;-86
2024/01/26 00:07:58;;;;;;;28.52;12.63;;;;;;;;;;5088189;28;20057;-86
2024/01/26 00:10:24;;;;;;;28.67;11.63;;;;;;;;;;5087466;28;20035;-86
2024/01/26 00:12:50;;;;;;;30.95;12.93;;;;;;;;;;5070601;28;20032;-87
2024/01/26 00:15:16;;;;;;;31.20;14.32;;;;;;;;;;5067648;28;20036;-87
2024/01/26 00:17:42;;;;;;;20.58;10.20;;;;;;;;;;5070123;28;20039;-86
2024/01/26 00:20:09;;;;;;;27.63;12.65;;;;;;;;;;5070958;28;20504;-87
2024/01/26 00:22:35;;;;;;;28.35;13.55;;;;;;;;;;5070589;28;20064;-87
2024/01/26 00:25:01;;;;;;;23.13;11.02;;;;;;;;;;5070785;28;20135;-86
2024/01/26 00:27:27;;;;;;;28.23;13.23;;;;;;;;;;5088186;28;20551;-87
2024/01/26 00:29:53;;;;;;;24.33;12.25;;;;;;;;;;5069693;28;20443;-87
2024/01/26 00:32:19;;;;;;;24.85;10.90;;;;;;;;;;5070609;28;20043;-86
2024/01/26 00:34:45;;;;;;;25.42;12.02;;;;;;;;;;5083726;28;20050;-86
2024/01/26 00:37:14;;;;;;;27.63;12.70;;;;;;;;;;5069750;28;20059;-86
2024/01/26 00:39:40;;;;;;;27.52;12.68;;;;;;;;;;5083531;28;20067;-86
2024/01/26 00:42:06;;;;;;;24.33;11.38;;;;;;;;;;5088030;28;20070;-86
2024/01/26 00:44:32;;;;;;;23.60;10.00;;;;;;;;;;5087915;28;20452;-89
2024/01/26 00:46:58;;;;;;;28.33;13.32;;;;;;;;;;5070207;28;20115;-86
2024/01/26 00:49:24;;;;;;;23.23;10.32;;;;;;;;;;5068993;28;20131;-87
2024/01/26 00:51:50;;;;;;;23.52;11.20;;;;;;;;;;5086146;28;20036;-86
2024/01/26 00:54:16;;;;;;;23.23;11.43;;;;;;;;;;5086730;28;20130;-86
2024/01/26 00:56:43;;;;;;;24.65;11.95;;;;;;;;;;5070512;28;20038;-85
2024/01/26 00:59:09;;;;;;;22.48;11.25;;;;;;;;;;5087813;28;20048;-86
2024/01/26 01:01:35;;;;;;;22.50;10.98;;;;;;;;;;5085515;28;20036;-86
2024/01/26 01:04:01;;;;;;;23.80;10.88;;;;;;;;;;5070465;28;20043;-86
2024/01/26 01:06:27;;;;;;;23.00;11.77;;;;;;;;;;5067356;28;20036;-86
2024/01/26 01:08:53;;;;;;;20.65;9.95;;;;;;;;;;5070829;28;20077;-86
2024/01/26 01:11:19;;;;;;;22.65;10.88;;;;;;;;;;5087059;28;20052;-86
2024/01/26 01:13:45;;;;;;;25.50;11.63;;;;;;;;;;5087715;28;20137;-86
2024/01/26 01:16:12;;;;;;;22.10;11.20;;;;;;;;;;5069454;28;20504;-86
2024/01/26 01:18:38;;;;;;;28.42;13.50;;;;;;;;;;5084139;28;20047;-86
2024/01/26 01:21:05;;;;;;;26.92;11.98;;;;;;;;;;5087999;28;20135;-86
2024/01/26 01:23:31;;;;;;;23.42;11.55;;;;;;;;;;5086539;28;20507;-86
2024/01/26 01:25:57;;;;;;;23.08;11.77;;;;;;;;;;5086523;28;20040;-86
2024/01/26 01:28:23;;;;;;;26.80;13.00;;;;;;;;;;5086877;28;20500;-86
2024/01/26 01:30:50;;;;;;;24.08;9.50;;;;;;;;;;5085672;28;20063;-86
2024/01/26 01:33:16;;;;;;;24.13;12.25;;;;;;;;;;5089270;28;20047;-86
2024/01/26 01:35:42;;;;;;;20.15;11.00;;;;;;;;;;5086507;28;20044;-86
2024/01/26 01:38:08;;;;;;;21.48;11.00;;;;;;;;;;5069608;28;20509;-86
2024/01/26 01:40:34;;;;;;;21.90;11.18;;;;;;;;;;5086126;28;20098;-86
2024/01/26 01:43:01;;;;;;;19.75;10.82;;;;;;;;;;5084949;28;20052;-86
2024/01/26 01:45:27;;;;;;;20.27;10.25;;;;;;;;;;5086642;28;20093;-85
2024/01/26 01:47:53;;;;;;;25.00;11.85;;;;;;;;;;5084580;28;20485;-86
2024/01/26 01:50:19;;;;;;;19.85;10.57;;;;;;;;;;5086902;28;20122;-85
2024/01/26 01:52:45;;;;;;;23.58;11.95;;;;;;;;;;5086309;28;20044;-85
2024/01/26 01:55:14;;;;;;;19.92;10.32;;;;;;;;;;5083468;28;20408;-86
2024/01/26 01:57:41;;;;;;;24.13;12.30;;;;;;;;;;5084893;28;20063;-85
2024/01/26 02:00:15;;;;;;;18.75;10.48;;;;;;;;;;5073144;28;20068;-86
2024/01/26 02:02:45;;;;;;;22.50;11.73;;;;;;;;;;5068213;28;20036;-85
2024/01/26 02:05:12;;;;;;;19.10;11.48;;;;;;;;;;5068477;28;20040;-86
2024/01/26 02:07:38;;;;;;;23.63;11.27;;;;;;;;;;5084280;28;20060;-85
2024/01/26 02:10:07;;;;;;;21.50;11.82;;;;;;;;;;5068165;28;20040;-86
2024/01/26 02:12:33;;;;;;;19.00;10.05;;;;;;;;;;5069319;28;20036;-86
2024/01/26 02:14:59;;;;;;;15.95;7.80;;;;;;;;;;5068985;28;20392;-86
2024/01/26 02:17:32;;;;;;;19.48;10.43;;;;;;;;;;5086503;28;20040;-86
2024/01/26 02:19:58;;;;;;;16.33;9.35;;;;;;;;;;5086074;28;20162;-85
2024/01/26 02:22:24;;;;;;;22.63;11.73;;;;;;;;;;5087944;28;20185;-85
2024/01/26 02:24:50;;;;;;;21.20;11.85;;;;;;;;;;5063493;28;20047;-85
2024/01/26 02:27:16;;;;;;;14.48;8.85;;;;;;;;;;5085407;28;20199;-86
2024/01/26 02:29:42;;;;;;;18.65;9.48;;;;;;;;;;5085619;28;20040;-86
2024/01/26 02:32:09;;;;;;;18.10;9.20;;;;;;;;;;5070080;28;20040;-86
2024/01/26 02:34:35;;;;;;;14.80;8.65;;;;;;;;;;5083854;28;20134;-85
2024/01/26 02:37:01;;;;;;;20.45;10.45;;;;;;;;;;5065502;28;20063;-85
2024/01/26 02:39:28;;;;;;;19.08;11.13;;;;;;;;;;5084247;28;20048;-85
2024/01/26 02:41:54;;;;;;;15.65;8.98;;;;;;;;;;5088495;28;20056;-85
2024/01/26 02:44:21;;;;;;;19.23;9.77;;;;;;;;;;5072484;28;20099;-85
2024/01/26 02:46:47;;;;;;;17.40;9.63;;;;;;;;;;5089724;28;20123;-85
2024/01/26 02:49:13;;;;;;;14.07;8.02;;;;;;;;;;5087319;28;20055;-85
2024/01/26 02:51:39;;;;;;;16.20;9.40;;;;;;;;;;5089954;28;20046;-86
2024/01/26 02:54:05;;;;;;;18.67;10.15;;;;;;;;;;5073950;28;20075;-85
2024/01/26 02:56:31;;;;;;;22.27;10.05;;;;;;;;;;5092848;28;20388;-86
2024/01/26 02:58:57;;;;;;;15.75;8.57;;;;;;;;;;5089626;28;20036;-85
2024/01/26 03:01:23;;;;;;;17.42;9.85;;;;;;;;;;5074328;28;20179;-85
2024/01/26 03:03:49;;;;;;;14.68;8.77;;;;;;;;;;5073811;28;20404;-85
2024/01/26 03:06:16;;;;;;;17.95;9.80;;;;;;;;;;5088529;28;20035;-86
2024/01/26 03:08:42;;;;;;;15.45;8.90;;;;;;;;;;5071426;28;20056;-85
2024/01/26 03:11:08;;;;;;;7.68;4.95;;;;;;;;;;5094529;28;20044;-86
2024/01/26 03:13:34;;;;;;;14.32;8.32;;;;;;;;;;5099787;28;20059;-86
2024/01/26 03:16:00;;;;;;;14.77;8.65;;;;;;;;;;5099077;28;20065;-85
2024/01/26 03:18:26;;;;;;;16.30;9.82;;;;;;;;;;5105596;28;20099;-85
2024/01/26 03:20:52;;;;;;;15.82;8.88;;;;;;;;;;5101578;28;20035;-85
2024/01/26 03:23:18;;;;;;;15.90;9.18;;;;;;;;;;5098310;28;20115;-85
2024/01/26 03:25:44;;;;;;;16.33;9.70;;;;;;;;;;5076207;28;20438;-85
2024/01/26 03:28:11;;;;;;;17.05;9.63;;;;;;;;;;5093627;28;20032;-85
2024/01/26 03:30:38;;;;;;;14.68;9.13;;;;;;;;;;5096145;28;20036;-85
2024/01/26 03:33:04;;;;;;;14.98;7.50;;;;;;;;;;5097256;28;20043;-86
2024/01/26 03:35:30;;;;;;;17.70;10.27;;;;;;;;;;5083924;28;20473;-85
2024/01/26 03:37:56;;;;;;;16.50;9.85;;;;;;;;;;5083044;28;20043;-85
2024/01/26 03:40:24;;;;;;;16.48;10.18;;;;;;;;;;5092679;28;20032;-85
2024/01/26 03:42:51;;;;;;;15.18;9.40;;;;;;;;;;5086096;28;20056;-85
2024/01/26 03:45:17;;;;;;;18.13;9.82;;;;;;;;;;5069937;28;20511;-85
2024/01/26 03:47:43;;;;;;;14.95;8.48;;;;;;;;;;5070546;28;20036;-85
2024/01/26 03:50:09;;;;;;;16.35;9.77;;;;;;;;;;5087175;28;20036;-85
2024/01/26 03:52:35;;;;;;;18.63;10.27;;;;;;;;;;5086767;28;20044;-85
2024/01/26 03:55:01;;;;;;;15.57;9.10;;;;;;;;;;5073472;28;20112;-85
2024/01/26 03:57:27;;;;;;;17.70;10.32;;;;;;;;;;5090262;28;20373;-85
2024/01/26 03:59:54;;;;;;;16.13;8.35;;;;;;;;;;5087263;28;20044;-85
2024/01/26 04:02:20;;;;;;;16.88;9.02;;;;;;;;;;5086874;28;20075;-85
2024/01/26 04:04:46;;;;;;;21.00;10.20;;;;;;;;;;5087976;28;20062;-86
2024/01/26 04:07:12;;;;;;;17.90;9.30;;;;;;;;;;5084316;28;20028;-85
2024/01/26 04:09:38;;;;;;;16.33;9.98;;;;;;;;;;5067243;28;20042;-85
2024/01/26 04:12:04;;;;;;;13.32;7.40;;;;;;;;;;5066333;28;20040;-85
2024/01/26 04:14:30;;;;;;;15.20;8.27;;;;;;;;;;5067394;28;20052;-84
2024/01/26 04:16:56;;;;;;;15.75;9.70;;;;;;;;;;5087963;28;20531;-86
2024/01/26 04:19:22;;;;;;;16.33;9.45;;;;;;;;;;5088494;28;20150;-84
2024/01/26 04:21:49;;;;;;;16.17;9.70;;;;;;;;;;5089254;28;20122;-85
2024/01/26 04:24:16;;;;;;;15.73;9.13;;;;;;;;;;5087356;28;20044;-85
2024/01/26 04:26:42;;;;;;;13.95;9.07;;;;;;;;;;5085593;28;20409;-85
2024/01/26 04:29:08;;;;;;;17.02;9.85;;;;;;;;;;5085900;28;20039;-85
2024/01/26 04:31:34;;;;;;;12.48;7.80;;;;;;;;;;5086406;28;20044;-85
2024/01/26 04:34:00;;;;;;;14.18;8.07;;;;;;;;;;5087346;28;20396;-85
2024/01/26 04:36:26;;;;;;;15.32;9.70;;;;;;;;;;5088445;28;20048;-84
2024/01/26 04:38:52;;;;;;;15.23;8.90;;;;;;;;;;5086310;28;20040;-85
2024/01/26 04:41:18;;;;;;;18.50;10.25;;;;;;;;;;5085392;28;20043;-85
2024/01/26 04:43:44;;;;;;;16.80;9.32;;;;;;;;;;5089164;28;20047;-85
2024/01/26 04:46:10;;;;;;;9.75;6.30;;;;;;;;;;5088366;28;20039;-87
2024/01/26 04:48:36;;;;;;;8.75;5.85;;;;;;;;;;5083131;28;20048;-85
2024/01/26 04:51:02;;;;;;;17.48;10.90;;;;;;;;;;5070260;28;20043;-85
2024/01/26 04:53:28;;;;;;;18.58;11.20;;;;;;;;;;5090135;28;20039;-86
2024/01/26 04:55:54;;;;;;;18.92;11.52;;;;;;;;;;5081606;28;20553;-85
2024/01/26 04:58:20;;;;;;;18.17;9.98;;;;;;;;;;5087355;28;20052;-85
2024/01/26 05:00:47;;;;;;;21.75;12.48;;;;;;;;;;5069464;28;20093;-86
2024/01/26 05:03:13;;;;;;;15.65;8.20;;;;;;;;;;5067486;28;20042;-85
2024/01/26 05:05:39;;;;;;;20.23;12.50;;;;;;;;;;5068370;28;20548;-85
2024/01/26 05:08:05;;;;;;;22.05;11.95;;;;;;;;;;5087533;28;20060;-86
2024/01/26 05:10:31;;;;;;;15.27;8.88;;;;;;;;;;5087278;28;20211;-87
2024/01/26 05:12:57;;;;;;;20.10;13.13;;;;;;;;;;5088829;28;20032;-85
2024/01/26 05:15:23;;;;;;;19.90;12.57;;;;;;;;;;5087596;28;20043;-86
2024/01/26 05:17:49;;;;;;;19.80;10.63;;;;;;;;;;5066920;28;20569;-84
2024/01/26 05:20:15;;;;;;;19.60;12.50;;;;;;;;;;5086412;28;20056;-85
2024/01/26 05:22:41;;;;;;;25.55;12.43;;;;;;;;;;5085880;28;20119;-85
2024/01/26 05:25:08;;;;;;;20.35;11.88;;;;;;;;;;5072205;28;20124;-85
2024/01/26 05:27:34;;;;;;;20.77;12.70;;;;;;;;;;5086933;28;20396;-86
2024/01/26 05:30:00;;;;;;;19.17;10.98;;;;;;;;;;5067944;28;20062;-84
2024/01/26 05:32:26;;;;;;;20.52;12.52;;;;;;;;;;5088278;28;20156;-85
2024/01/26 05:34:52;;;;;;;12.85;7.60;;;;;;;;;;5085036;28;20032;-85
2024/01/26 05:37:18;;;;;;;19.50;12.63;;;;;;;;;;5083775;28;20051;-86
2024/01/26 05:39:44;;;;;;;21.67;13.10;;;;;;;;;;5085586;28;20067;-86
2024/01/26 05:42:10;;;;;;;16.40;12.18;;;;;;;;;;5088103;28;20225;-85
2024/01/26 05:44:36;;;;;;;18.33;11.23;;;;;;;;;;5086935;28;20272;-85
2024/01/26 05:47:02;;;;;;;17.08;10.80;;;;;;;;;;5086229;28;20038;-85
2024/01/26 05:49:28;;;;;;;20.05;11.38;;;;;;;;;;5072799;28;20051;-85
2024/01/26 05:51:54;;;;;;;17.17;10.70;;;;;;;;;;5089731;28;21128;-85
2024/01/26 05:54:20;;;;;;;23.25;10.48;;;;;;;;;;5072466;28;20078;-86
2024/01/26 05:56:46;;;;;;;14.82;9.80;;;;;;;;;;5084499;28;20036;-85
2024/01/26 05:59:12;;;;;;;16.83;11.57;;;;;;;;;;5084897;28;20093;-87
2024/01/26 06:01:38;;;;;;;18.83;11.45;;;;;;;;;;5084651;28;20214;-87
2024/01/26 06:04:05;;;;;;;19.40;10.88;;;;;;;;;;5087193;28;20036;-85
2024/01/26 06:06:31;;;;;;;15.68;9.35;;;;;;;;;;5085528;28;20090;-85
2024/01/26 06:08:57;;;;;;;16.88;9.80;;;;;;;;;;5065826;28;20102;-85
2024/01/26 06:11:25;;;;;;;18.75;10.40;;;;;;;;;;5082256;28;20048;-85
2024/01/26 06:13:51;;;;;;;19.30;10.90;;;;;;;;;;5085704;28;20044;-87
2024/01/26 06:16:17;;;;;;;15.73;9.23;;;;;;;;;;5085667;28;20044;-85
2024/01/26 06:18:46;;;;;;;15.07;9.20;;;;;;;;;;5086317;28;20070;-86
2024/01/26 06:21:12;;;;;;;14.48;9.70;;;;;;;;;;5090016;28;20036;-86
2024/01/26 06:23:39;;;;;;;14.52;9.40;;;;;;;;;;5093003;28;20085;-85
2024/01/26 06:26:05;;;;;;;9.57;5.68;;;;;;;;;;5095741;28;20039;-87
2024/01/26 06:28:31;;;;;;;12.65;7.43;;;;;;;;;;5095157;28;20043;-88
2024/01/26 06:30:57;;;;;;;16.42;9.52;;;;;;;;;;5078514;28;20129;-87
2024/01/26 06:33:23;;;;;;;11.70;6.95;;;;;;;;;;5070129;28;20066;-86
2024/01/26 06:35:49;;;;;;;17.05;8.85;;;;;;;;;;5117879;27;20040;-86
2024/01/26 06:38:16;;;;;;;15.77;10.13;;;;;;;;;;5090170;28;20415;-88
2024/01/26 06:40:42;;;;;;;14.05;8.35;;;;;;;;;;5066678;28;20433;-87
2024/01/26 06:43:09;;;;;;;11.35;6.53;;;;;;;;;;5120555;27;20070;-87
2024/01/26 06:45:35;;;;;;;9.25;5.65;;;;;;;;;;5087406;28;20031;-89
2024/01/26 06:48:01;;;;;;;13.65;8.60;;;;;;;;;;5086995;28;20032;-88
2024/01/26 06:50:27;;;;;;;13.52;8.50;;;;;;;;;;5122578;27;20044;-88
2024/01/26 06:52:53;;;;;;;8.30;4.72;;;;;;;;;;5088361;28;20035;-89
2024/01/26 06:55:19;;;;;;;13.38;7.40;;;;;;;;;;5074050;28;20047;-88
2024/01/26 06:57:45;;;;;;;10.98;7.35;;;;;;;;;;5087261;28;20093;-87
2024/01/26 07:00:12;;;;;;;11.70;6.72;;;;;;;;;;5088981;28;20044;-91
2024/01/26 07:02:38;;;;;;;10.27;6.93;;;;;;;;;;5072734;28;20032;-90
2024/01/26 07:05:04;;;;;;;5.60;3.88;;;;;;;;;;5071892;28;20093;-89
2024/01/26 07:07:30;;;;;;;12.25;7.35;;;;;;;;;;5089449;28;20458;-90
2024/01/26 07:09:56;;;;;;;8.35;4.55;;;;;;;;;;5073466;28;20044;-88
2024/01/26 07:12:22;;;;;;;10.25;7.07;;;;;;;;;;5089613;28;20043;-91
2024/01/26 07:14:48;;;;;;;9.90;6.78;;;;;;;;;;5092991;28;20377;-88
2024/01/26 07:17:14;;;;;;;7.13;5.60;;;;;;;;;;5104399;28;20083;-87
2024/01/26 07:19:40;;;;;;;10.60;6.35;;;;;;;;;;5102744;28;20127;-87
2024/01/26 07:22:06;;;;;;;7.85;5.90;;;;;;;;;;5117574;28;20070;-88
2024/01/26 07:24:32;;;;;;;8.50;5.82;;;;;;;;;;5103389;28;20437;-89
2024/01/26 07:26:58;;;;;;;8.55;5.95;;;;;;;;;;5083466;28;20086;-89
2024/01/26 07:29:24;;;;;;;9.32;6.10;;;;;;;;;;5087042;28;20063;-88
2024/01/26 07:31:50;;;;;;;10.00;5.35;;;;;;;;;;5087780;28;20036;-88
2024/01/26 07:34:16;;;;;;;6.85;4.38;;;;;;;;;;5087331;28;20046;-85
2024/01/26 07:36:43;;;;;;;4.78;3.63;;;;;;;;;;5082109;28;20089;-90
2024/01/26 07:39:10;;;;;;;9.10;5.30;;;;;;;;;;5085613;28;20126;-89
2024/01/26 07:41:36;;;;;;;5.53;3.50;;;;;;;;;;5081840;28;20043;-89
2024/01/26 07:44:02;;;;;;;6.90;4.72;;;;;;;;;;5070232;28;20040;-87
2024/01/26 07:46:28;;;;;;;5.15;4.00;;;;;;;;;;5088430;28;20032;-89
2024/01/26 07:48:54;;;;;;;4.93;3.63;;;;;;;;;;5070419;28;20621;-88
2024/01/26 07:51:20;;;;;;;4.28;3.28;;;;;;;;;;5088200;28;20082;-85
2024/01/26 07:53:46;;;;;;;8.23;3.70;;;;;;;;;;5085955;28;20047;-85
2024/01/26 07:56:12;;;;;;;6.68;4.07;;;;;;;;;;5089779;28;20492;-87
2024/01/26 07:58:41;;;;;;;3.75;2.75;;;;;;;;;;5085353;28;20040;-86
2024/01/26 08:01:09;;;;;;;4.40;3.17;;;;;;;;;;5087918;28;20134;-86
2024/01/26 08:03:35;;;;;;;5.93;3.75;;;;;;;;;;5068589;28;20055;-86
2024/01/26 08:06:01;;;;;;;3.97;3.30;;;;;;;;;;5066608;28;20036;-86
2024/01/26 08:08:27;;;;;;;5.13;2.90;;;;;;;;;;5083831;28;20119;-87
2024/01/26 08:10:54;;;;;;;4.80;3.08;;;;;;;;;;5120962;27;20565;-87
2024/01/26 08:13:20;;;;;;;6.43;3.70;;;;;;;;;;5072782;28;20503;-88
2024/01/26 08:15:46;;;;;;;6.32;4.28;;;;;;;;;;5069432;28;20036;-87
2024/01/26 08:18:12;;;;;;;4.07;3.28;;;;;;;;;;5088622;28;20072;-87
2024/01/26 08:20:38;;;;;;;2.80;1.98;;;;;;;;;;5079318;28;20048;-90
2024/01/26 08:23:04;;;;;;;3.80;2.90;;;;;;;;;;5062751;28;20089;-88
2024/01/26 08:25:30;;;;;;;3.85;2.92;;;;;;;;;;5068052;28;20032;-89
2024/01/26 08:27:56;;;;;;;2.75;1.98;;;;;;;;;;5085058;28;20051;-89
2024/01/26 08:30:23;;;;;;;2.90;2.03;;;;;;;;;;5066242;28;20097;-90
2024/01/26 08:32:49;;;;;;;2.50;1.60;;;;;;;;;;5086830;28;20047;-91
2024/01/26 08:35:16;;;;;;;5.82;3.55;;;;;;;;;;5069717;28;20036;-89
2024/01/26 08:37:42;;;;;;;5.38;4.03;;;;;;;;;;5068075;28;20036;-90
2024/01/26 08:40:09;;;;;;;2.95;2.47;;;;;;;;;;5084664;28;20040;-89
2024/01/26 08:42:35;;;;;;;3.97;2.63;;;;;;;;;;5097700;28;20036;-91
2024/01/26 08:45:01;;;;;;;6.30;3.97;;;;;;;;;;5071250;28;20119;-87
2024/01/26 08:47:27;;;;;;;5.90;4.60;;;;;;;;;;5087483;28;20408;-87
2024/01/26 08:49:53;;;;;;;2.38;2.17;;;;;;;;;;5070701;28;20139;-89
2024/01/26 08:52:20;;;;;;;5.70;3.58;;;;;;;;;;5089174;28;20139;-89
2024/01/26 08:54:46;;;;;;;3.97;2.75;;;;;;;;;;5086789;28;20415;-91
2024/01/26 08:57:12;;;;;;;4.75;3.25;;;;;;;;;;5066552;28;20047;-87
2024/01/26 08:59:40;;;;;;;12.65;4.03;;;;;;;;;;5087979;28;20040;-89
2024/01/26 09:02:07;;;;;;;4.93;3.60;;;;;;;;;;5085746;28;20451;-87
2024/01/26 09:04:33;;;;;;;4.97;2.60;;;;;;;;;;5086717;28;20039;-87
2024/01/26 09:06:59;;;;;;;6.20;3.45;;;;;;;;;;5086775;28;20385;-86
2024/01/26 09:09:25;;;;;;;3.00;2.67;;;;;;;;;;5069116;28;20056;-88
2024/01/26 09:11:51;;;;;;;4.75;3.70;;;;;;;;;;5086818;28;20403;-90
2024/01/26 09:14:18;;;;;;;6.35;5.50;;;;;;;;;;5072449;28;20485;-88
2024/01/26 09:16:44;;;;;;;9.00;5.38;;;;;;;;;;5070095;28;20059;-90
2024/01/26 09:19:10;;;;;;;8.32;5.30;;;;;;;;;;5069622;28;20436;-86
2024/01/26 09:21:36;;;;;;;6.00;3.35;;;;;;;;;;5086012;28;20028;-87
2024/01/26 09:24:02;;;;;;;5.15;4.40;;;;;;;;;;5069774;28;20121;-90
2024/01/26 09:26:28;;;;;;;5.05;4.03;;;;;;;;;;5069626;28;20036;-89
2024/01/26 09:28:57;;;;;;;5.20;2.88;;;;;;;;;;5069661;28;20073;-91
2024/01/26 09:31:23;;;;;;;2.78;2.50;;;;;;;;;;5069949;28;20070;-88
2024/01/26 09:33:49;;;;;;;1.20;0.90;;;;;;;;;;5069542;28;20570;-85
2024/01/26 09:36:15;;;;;;;1.70;0.50;;;;;;;;;;5089899;28;20415;-84
2024/01/26 09:38:41;;;;;;;1.98;0.52;;;;;;;;;;5085991;28;20047;-89
2024/01/26 09:41:07;;;;;;;0.57;0.30;;;;;;;;;;5069426;28;20040;-88
2024/01/26 09:43:33;;;;;;;0.82;0.40;;;;;;;;;;5089990;28;20377;-88
2024/01/26 09:45:59;;;;;;;2.70;0.40;;;;;;;;;;5084347;28;20044;-88
2024/01/26 09:48:25;;;;;;;1.23;0.28;;;;;;;;;;5084037;28;20067;-88
2024/01/26 09:50:51;;;;;;;0.52;0.40;;;;;;;;;;5077027;28;20025;-89
2024/01/26 09:53:18;;;;;;;4.03;0.75;;;;;;;;;;5078650;28;20044;-89
2024/01/26 09:55:46;;;;;;;4.22;0.47;;;;;;;;;;5092931;28;20048;-89
2024/01/26 09:58:13;;;;;;;2.60;0.77;;;;;;;;;;5078786;28;20186;-89
2024/01/26 10:00:39;;;;;;;1.27;0.35;;;;;;;;;;5079197;28;20473;-91
2024/01/26 10:03:05;;;;;;;6.05;1.23;;;;;;;;;;5073197;28;20067;-90
2024/01/26 10:05:31;;;;;;;6.53;0.80;;;;;;;;;;5089278;28;20428;-90
2024/01/26 10:07:57;;;;;;;2.20;0.57;;;;;;;;;;5071479;28;20055;-90
2024/01/26 10:10:23;;;;;;;1.27;0.60;;;;;;;;;;5067975;28;20041;-87
2024/01/26 10:12:51;;;;;;;3.05;0.75;;;;;;;;;;5072172;28;20028;-91
2024/01/26 10:15:17;;;;;;;2.65;0.52;;;;;;;;;;5090525;28;20050;-87
2024/01/26 10:17:43;;;;;;;2.83;0.52;;;;;;;;;;5090481;28;20532;-87
2024/01/26 10:20:14;;;;;;;3.22;0.40;;;;;;;;;;5089978;28;20123;-88
2024/01/26 10:22:41;;;;;;;5.43;1.02;;;;;;;;;;5073657;28;20165;-88
2024/01/26 10:25:08;;;;;;;3.90;0.77;;;;;;;;;;5076258;28;20100;-86
2024/01/26 10:27:34;;;;;;;1.60;0.55;;;;;;;;;;5078505;28;20036;-88
2024/01/26 10:30:00;;;;;;;5.22;1.85;;;;;;;;;;5098141;28;20069;-88
2024/01/26 10:32:30;;;;;;;5.15;1.52;;;;;;;;;;5095610;28;20036;-88
2024/01/26 10:35:00;;;;;;;8.07;1.70;;;;;;;;;;5112454;28;20052;-89
2024/01/26 10:37:28;;;;;;;4.53;1.23;;;;;;;;;;5110506;28;20024;-89
2024/01/26 10:39:55;;;;;;;7.35;1.23;;;;;;;;;;5091113;28;20061;-90
2024/01/26 10:42:21;;;;;;;4.10;1.35;;;;;;;;;;5089837;28;20074;-90
2024/01/26 10:44:50;;;;;;;7.13;1.20;;;;;;;;;;5075309;28;20032;-91
2024/01/26 10:47:21;;;;;;;8.98;0.93;;;;;;;;;;5088667;28;20037;-90
2024/01/26 10:49:50;;;;;;;9.48;2.13;;;;;;;;;;5073658;28;20044;-90
2024/01/26 10:52:20;;;;;;;2.83;0.90;;;;;;;;;;5088617;28;20488;-87
2024/01/26 10:54:47;;;;;;;8.77;1.38;;;;;;;;;;5073142;28;20098;-88
2024/01/26 10:57:14;;;;;;;7.72;1.70;;;;;;;;;;5072199;28;20092;-88
2024/01/26 10:59:41;;;;;;;5.35;1.48;;;;;;;;;;5071899;28;20043;-88
2024/01/26 11:02:27;;;;;;;4.65;1.35;;;;;;;;;;5088593;28;20036;-86
2024/01/26 11:04:53;;;;;;;5.00;1.00;;;;;;;;;;5072651;28;20047;-86
2024/01/26 11:07:20;;;;;;;7.93;1.92;;;;;;;;;;5087790;28;20036;-85
2024/01/26 11:09:49;;;;;;;4.60;1.20;;;;;;;;;;5087998;28;20070;-84
2024/01/26 11:12:22;;;;;;;8.32;2.20;;;;;;;;;;5072323;28;20484;-85
2024/01/26 11:15:10;;;;;;;5.22;1.38;;;;;;;;;;5087227;28;20028;-84
2024/01/26 11:17:56;;;;;;;12.32;1.42;;;;;;;;;;5123031;27;20036;-86
2024/01/26 11:20:26;;;;;;;10.35;2.65;;;;;;;;;;5069686;28;20048;-88
2024/01/26 11:23:08;;;;;;;3.40;0.93;;;;;;;;;;5070561;28;20154;-87
2024/01/26 11:25:35;;;;;;;5.30;1.33;;;;;;;;;;5093360;28;20036;-87
2024/01/26 11:28:02;;;;;;;2.60;1.33;;;;;;;;;;5096982;28;20091;-88
2024/01/26 11:30:28;;;;;;;5.72;1.38;;;;;;;;;;5082148;28;20040;-89
2024/01/26 11:32:54;;;;;;;9.10;2.20;;;;;;;;;;5093168;28;20044;-88
2024/01/26 11:35:21;;;;;;;13.30;2.15;;;;;;;;;;5096836;28;20036;-89
2024/01/26 11:37:48;;;;;;;4.20;0.90;;;;;;;;;;5093128;28;20047;-87
2024/01/26 11:40:14;;;;;;;4.60;1.38;;;;;;;;;;5073305;28;20043;-90
2024/01/26 11:42:43;;;;;;;7.88;2.30;;;;;;;;;;5053553;28;20032;-89
2024/01/26 11:45:13;;;;;;;5.43;1.25;;;;;;;;;;5071261;28;20040;-87
2024/01/26 11:47:40;;;;;;;10.73;2.30;;;;;;;;;;5068945;28;20039;-89
2024/01/26 11:50:09;;;;;;;10.70;2.20;;;;;;;;;;5088417;28;20069;-88
2024/01/26 11:52:35;;;;;;;6.85;1.10;;;;;;;;;;5066894;28;20035;-90
2024/01/26 11:55:02;;;;;;;4.55;1.48;;;;;;;;;;5085881;28;20530;-87
2024/01/26 11:57:29;;;;;;;5.20;1.00;;;;;;;;;;5069222;28;20036;-85
2024/01/26 11:59:57;;;;;;;6.43;1.55;;;;;;;;;;5070537;28;20097;-88
2024/01/26 12:02:23;;;;;;;4.63;1.77;;;;;;;;;;5087046;28;20488;-86
2024/01/26 12:04:49;;;;;;;2.75;0.88;;;;;;;;;;5070579;28;20040;-85
2024/01/26 12:07:16;;;;;;;5.93;1.17;;;;;;;;;;5087365;28;20036;-86
2024/01/26 12:09:42;;;;;;;9.32;3.13;;;;;;;;;;5084279;28;20044;-86
2024/01/26 12:12:10;;;;;;;3.03;1.15;;;;;;;;;;5069164;28;20038;-88
2024/01/26 12:14:36;;;;;;;6.55;1.02;;;;;;;;;;5084598;28;20060;-86
2024/01/26 12:17:02;;;;;;;6.63;1.50;;;;;;;;;;5071838;28;20063;-87
2024/01/26 12:19:28;;;;;;;7.75;1.30;;;;;;;;;;5071357;28;20048;-88
2024/01/26 12:21:54;;;;;;;4.82;1.65;;;;;;;;;;5064622;28;20063;-87
2024/01/26 12:24:22;;;;;;;9.65;1.83;;;;;;;;;;5067455;28;20071;-88
2024/01/26 12:26:48;;;;;;;8.57;2.45;;;;;;;;;;5087711;28;20059;-89
2024/01/26 12:29:15;;;;;;;6.40;1.90;;;;;;;;;;5072471;28;20164;-85
2024/01/26 12:31:41;;;;;;;9.10;2.85;;;;;;;;;;5087678;28;20399;-85
2024/01/26 12:34:16;;;;;;;7.53;1.48;;;;;;;;;;5087573;28;20040;-88
2024/01/26 12:36:43;;;;;;;11.75;2.53;;;;;;;;;;5069285;28;20044;-86
2024/01/26 12:39:09;;;;;;;11.70;2.95;;;;;;;;;;5087450;28;20442;-87
2024/01/26 12:41:35;;;;;;;4.90;1.92;;;;;;;;;;5070756;28;20130;-86
2024/01/26 12:44:01;;;;;;;11.85;2.95;;;;;;;;;;5088053;28;20046;-85
2024/01/26 12:46:27;;;;;;;8.23;2.92;;;;;;;;;;5087959;28;20136;-87
2024/01/26 12:48:54;;;;;;;5.57;1.48;;;;;;;;;;5087113;28;20941;-86
2024/01/26 12:51:20;;;;;;;8.38;1.95;;;;;;;;;;5087523;28;20040;-86
2024/01/26 12:53:47;;;;;;;1.98;0.75;;;;;;;;;;5085819;28;20115;-86
2024/01/26 12:56:13;;;;;;;8.50;2.00;;;;;;;;;;5070474;28;20396;-85
2024/01/26 12:58:39;;;;;;;4.45;1.58;;;;;;;;;;5087691;28;20454;-87
2024/01/26 13:01:05;;;;;;;5.03;1.10;;;;;;;;;;5069779;28;20032;-85
2024/01/26 13:03:31;;;;;;;5.03;2.25;;;;;;;;;;5070679;28;20389;-85
2024/01/26 13:05:57;;;;;;;3.78;1.10;;;;;;;;;;5069855;28;20072;-86
2024/01/26 13:08:23;;;;;;;12.75;2.35;;;;;;;;;;5070653;28;20482;-83
2024/01/26 13:10:50;;;;;;;6.32;1.27;;;;;;;;;;5085891;28;20055;-87
2024/01/26 13:13:16;;;;;;;9.32;1.42;;;;;;;;;;5070724;28;20044;-84
2024/01/26 13:15:43;;;;;;;5.07;1.10;;;;;;;;;;5087368;28;20614;-86
2024/01/26 13:18:10;;;;;;;10.02;1.60;;;;;;;;;;5087175;28;20046;-84
2024/01/26 13:20:36;;;;;;;5.55;1.77;;;;;;;;;;5089947;28;20063;-85
2024/01/26 13:23:02;;;;;;;7.38;1.65;;;;;;;;;;5092409;28;20050;-85
2024/01/26 13:25:30;;;;;;;6.68;1.10;;;;;;;;;;5092113;28;20449;-84
2024/01/26 13:27:56;;;;;;;9.30;2.60;;;;;;;;;;5099134;28;20044;-84
2024/01/26 13:30:22;;;;;;;5.90;1.55;;;;;;;;;;5093394;28;20051;-85
2024/01/26 13:32:49;;;;;;;6.22;0.98;;;;;;;;;;5085732;28;20044;-84
2024/01/26 13:35:15;;;;;;;9.55;1.27;;;;;;;;;;5083917;28;20048;-84
2024/01/26 13:37:41;;;;;;;10.57;1.83;;;;;;;;;;5086381;28;20056;-84
2024/01/26 13:40:09;;;;;;;2.88;0.80;;;;;;;;;;5089295;28;20040;-85
2024/01/26 13:42:35;;;;;;;6.60;1.70;;;;;;;;;;5087563;28;20044;-86
2024/01/26 13:45:02;;;;;;;5.22;1.08;;;;;;;;;;5070577;28;20036;-87
2024/01/26 13:47:29;;;;;;;3.33;0.85;;;;;;;;;;5086925;28;20186;-85
2024/01/26 13:49:56;;;;;;;2.72;0.80;;;;;;;;;;5088081;28;20559;-85
2024/01/26 13:52:23;;;;;;;1.92;0.60;;;;;;;;;;5085751;28;20112;-83
2024/01/26 13:54:49;;;;;;;1.15;0.50;;;;;;;;;;5086255;28;20032;-84
2024/01/26 13:57:15;;;;;;;5.50;1.73;;;;;;;;;;5086479;28;20046;-87
2024/01/26 13:59:41;;;;;;;3.58;0.60;;;;;;;;;;5086461;28;20404;-86
2024/01/26 14:02:08;;;;;;;3.17;0.55;;;;;;;;;;5086418;28;20042;-85
2024/01/26 14:04:35;;;;;;;1.80;1.17;;;;;;;;;;5086805;28;20032;-85
2024/01/26 14:07:01;;;;;;;3.42;0.85;;;;;;;;;;5068960;28;20708;-86
2024/01/26 14:09:27;;;;;;;1.55;0.47;;;;;;;;;;5086196;28;20070;-85
2024/01/26 14:11:53;;;;;;;6.55;0.80;;;;;;;;;;5069456;28;20040;-85
2024/01/26 14:14:22;;;;;;;3.75;0.40;;;;;;;;;;5069778;28;20032;-85
2024/01/26 14:16:48;;;;;;;1.25;0.52;;;;;;;;;;5087500;28;20040;-84
2024/01/26 14:19:14;;;;;;;0.98;0.30;;;;;;;;;;5069539;28;20036;-85
2024/01/26 14:21:41;;;;;;;0.77;0.43;;;;;;;;;;5085758;28;20055;-85
2024/01/26 14:24:08;;;;;;;2.47;1.20;;;;;;;;;;5069535;28;20429;-87
2024/01/26 14:26:34;;;;;;;3.60;0.70;;;;;;;;;;5086368;28;20036;-84
2024/01/26 14:29:00;;;;;;;3.28;1.00;;;;;;;;;;5087950;28;20048;-85